createdAt,value
2018-03-28T00:00:13.240Z,17.40
2018-03-28T00:05:16.276Z,21.23
2018-03-28T00:10:20.145Z,16.53
2018-03-28T00:15:23.271Z,17.70
2018-03-28T00:20:26.399Z,15.03
2018-03-28T00:25:29.712Z,18.37
2018-03-28T00:30:33.318Z,14.17
2018-03-28T00:35:36.314Z,15.63
2018-03-28T00:40:39.198Z,18.10
2018-03-28T00:45:42.173Z,20.60
2018-03-28T00:50:45.102Z,20.13
2018-03-28T00:55:48.715Z,22.30
2018-03-28T01:00:52.094Z,23.07
2018-03-28T01:05:55.097Z,22.60
2018-03-28T01:10:58.431Z,20.20
2018-03-28T01:16:01.652Z,14.20
2018-03-28T01:21:04.710Z,21.90
2018-03-28T01:26:09.019Z,22.10
2018-03-28T01:31:12.741Z,14.47
2018-03-28T01:36:15.830Z,21.50
2018-03-28T01:41:19.104Z,13.40
2018-03-28T01:46:22.492Z,16.43
2018-03-28T01:51:25.472Z,11.30
2018-03-28T01:56:28.645Z,18.53
2018-03-28T02:01:32.176Z,22.50
2018-03-28T02:06:35.205Z,17.03
2018-03-28T02:11:38.361Z,18.50
2018-03-28T02:16:41.271Z,17.20
2018-03-28T02:21:44.381Z,13.33
2018-03-28T02:26:47.230Z,18.03
2018-03-28T02:31:50.981Z,11.60
2018-03-28T02:36:54.029Z,15.00
2018-03-28T02:41:58.189Z,10.03
2018-03-28T02:47:01.529Z,10.47
2018-03-28T02:52:04.786Z,6.53
2018-03-28T02:57:08.126Z,14.30
2018-03-28T03:02:13.026Z,9.60
2018-03-28T03:07:16.064Z,9.90
2018-03-28T03:12:19.091Z,15.50
2018-03-28T03:17:22.186Z,14.50
2018-03-28T03:22:25.003Z,10.33
2018-03-28T03:27:28.389Z,10.17
2018-03-28T03:32:31.763Z,12.60
2018-03-28T03:37:34.738Z,13.27
2018-03-28T03:42:37.562Z,12.70
2018-03-28T03:47:40.893Z,11.07
2018-03-28T03:52:44.741Z,14.43
2018-03-28T03:57:47.553Z,9.90
2018-03-28T04:02:51.234Z,9.93
2018-03-28T04:07:54.230Z,10.80
2018-03-28T04:12:57.255Z,11.20
2018-03-28T04:18:01.038Z,10.17
2018-03-28T04:23:04.138Z,12.00
2018-03-28T04:28:07.259Z,10.20
2018-03-28T04:33:10.315Z,12.87
2018-03-28T04:38:13.895Z,12.10
2018-03-28T04:43:16.973Z,15.63
2018-03-28T04:48:20.782Z,19.50
2018-03-28T04:53:24.012Z,15.10
2018-03-28T04:58:27.489Z,13.07
2018-03-28T05:03:30.592Z,15.37
2018-03-28T05:08:33.925Z,11.90
2018-03-28T05:13:36.874Z,13.90
2018-03-28T05:18:40.565Z,11.60
2018-03-28T05:23:43.354Z,14.77
2018-03-28T05:28:46.200Z,12.03
2018-03-28T05:33:49.534Z,14.60
2018-03-28T05:38:52.614Z,9.00
2018-03-28T05:43:55.440Z,12.67
2018-03-28T05:48:58.275Z,13.50
2018-03-28T05:54:01.120Z,9.40
2018-03-28T05:59:04.198Z,13.50
2018-03-28T06:04:07.393Z,12.40
2018-03-28T06:09:10.469Z,8.70
2018-03-28T06:14:13.286Z,14.00
2018-03-28T06:19:16.203Z,14.03
2018-03-28T06:24:19.064Z,13.17
2018-03-28T06:29:21.888Z,15.53
2018-03-28T06:34:24.927Z,13.17
2018-03-28T06:39:28.256Z,16.03
2018-03-28T06:44:31.378Z,15.90
2018-03-28T06:49:34.435Z,11.43
2018-03-28T06:54:37.645Z,12.10
2018-03-28T06:59:45.299Z,14.47
2018-03-28T07:04:49.214Z,16.67
2018-03-28T07:09:52.055Z,15.67
2018-03-28T07:14:55.198Z,16.30
2018-03-28T07:19:58.193Z,16.57
2018-03-28T07:25:00.981Z,17.37
2018-03-28T07:30:03.890Z,12.20
2018-03-28T07:35:06.734Z,16.30
2018-03-28T07:40:09.543Z,13.80
2018-03-28T07:45:12.625Z,15.60
2018-03-28T07:50:15.560Z,13.10
2018-03-28T07:55:18.438Z,16.27
2018-03-28T08:00:21.264Z,12.83
2018-03-28T08:05:24.087Z,14.33
2018-03-28T08:10:26.862Z,14.50
2018-03-28T08:15:30.061Z,16.50
2018-03-28T08:20:32.932Z,13.70
2018-03-28T08:25:37.798Z,16.60
2018-03-28T08:30:40.601Z,17.43
2018-03-28T08:35:44.024Z,13.50
2018-03-28T08:40:46.826Z,15.80
2018-03-28T08:45:54.669Z,15.00
2018-03-28T08:50:59.022Z,15.07
2018-03-28T08:56:02.137Z,15.90
2018-03-28T09:01:05.023Z,13.43
2018-03-28T09:06:08.030Z,11.90
2018-03-28T09:11:10.867Z,14.13
2018-03-28T09:16:14.010Z,16.20
2018-03-28T09:21:17.126Z,13.33
2018-03-28T09:26:19.963Z,15.03
2018-03-28T09:31:22.781Z,14.37
2018-03-28T09:36:25.631Z,12.60
2018-03-28T09:41:28.459Z,10.47
2018-03-28T09:46:32.746Z,13.73
2018-03-28T09:51:35.852Z,12.97
2018-03-28T09:56:38.745Z,14.40
2018-03-28T10:01:46.224Z,15.77
2018-03-28T10:06:49.156Z,13.80
2018-03-28T10:11:57.111Z,19.00
2018-03-28T10:17:00.870Z,15.53
2018-03-28T10:22:03.676Z,13.63
2018-03-28T10:27:06.512Z,15.83
2018-03-28T10:32:09.348Z,10.40
2018-03-28T10:37:12.685Z,10.30
2018-03-28T10:42:15.574Z,12.60
2018-03-28T10:47:18.386Z,13.80
2018-03-28T10:52:21.235Z,15.63
2018-03-28T10:57:24.429Z,13.40
2018-03-28T11:02:27.334Z,11.90
2018-03-28T11:07:36.029Z,12.83
2018-03-28T11:12:42.265Z,13.07
2018-03-28T11:17:45.060Z,10.50
2018-03-28T11:22:47.897Z,13.00
2018-03-28T11:27:50.688Z,12.97
2018-03-28T11:32:53.569Z,12.70
2018-03-28T11:37:56.756Z,18.50
2018-03-28T11:43:04.253Z,16.20
2018-03-28T11:48:08.076Z,13.73
2018-03-28T11:53:10.977Z,18.70
2018-03-28T11:58:14.730Z,22.07
2018-03-28T12:03:17.621Z,15.80
2018-03-28T12:08:20.483Z,19.00
2018-03-28T12:13:23.843Z,19.73
2018-03-28T12:18:26.649Z,12.97
2018-03-28T12:23:29.517Z,19.07
2018-03-28T12:28:32.303Z,19.17
2018-03-28T12:33:35.098Z,19.27
2018-03-28T12:38:38.080Z,15.80
2018-03-28T12:43:41.196Z,17.50
2018-03-28T12:48:44.288Z,16.97
2018-03-28T12:53:47.148Z,22.20
2018-03-28T12:58:49.982Z,19.27
2018-03-28T13:03:52.835Z,19.23
2018-03-28T13:08:55.899Z,23.40
2018-03-28T13:13:58.729Z,17.70
2018-03-28T13:19:01.563Z,15.47
2018-03-28T13:24:04.450Z,23.20
2018-03-28T13:29:07.659Z,25.87
2018-03-28T13:34:10.497Z,26.40
2018-03-28T13:39:13.566Z,28.83
2018-03-28T13:44:16.463Z,25.73
2018-03-28T13:49:19.791Z,20.70
2018-03-28T13:54:22.654Z,21.03
2018-03-28T13:59:25.791Z,25.17
2018-03-28T14:04:28.703Z,24.60
2018-03-28T14:09:31.723Z,14.67
2018-03-28T14:14:34.606Z,21.27
2018-03-28T14:19:37.463Z,23.10
2018-03-28T14:24:40.294Z,23.83
2018-03-28T14:29:43.120Z,22.07
2018-03-28T14:34:45.949Z,20.03
2018-03-28T14:39:48.986Z,29.80
2018-03-28T14:44:52.042Z,26.93
2018-03-28T14:49:54.860Z,20.77
2018-03-28T14:54:57.968Z,18.37
2018-03-28T15:00:00.848Z,26.17
2018-03-28T15:05:04.126Z,22.73
2018-03-28T15:10:07.025Z,19.77
2018-03-28T15:15:09.914Z,27.10
2018-03-28T15:20:12.817Z,22.40
2018-03-28T15:25:15.752Z,21.63
2018-03-28T15:30:18.766Z,23.47
2018-03-28T15:35:21.947Z,24.20
2018-03-28T15:40:25.116Z,24.23
2018-03-28T15:45:28.038Z,14.87
2018-03-28T15:50:30.932Z,18.93
2018-03-28T15:55:33.840Z,23.37
2018-03-28T16:00:36.732Z,23.73
2018-03-28T16:05:39.983Z,16.50
2018-03-28T16:10:42.985Z,22.43
2018-03-28T16:15:46.189Z,16.90
2018-03-28T16:20:49.130Z,21.97
2018-03-28T16:25:52.458Z,18.90
2018-03-28T16:30:55.493Z,23.10
2018-03-28T16:35:58.873Z,25.10
2018-03-28T16:41:01.903Z,16.07
2018-03-28T16:46:04.824Z,20.00
2018-03-28T16:51:07.803Z,16.10
2018-03-28T16:56:10.733Z,20.40
2018-03-28T17:01:13.778Z,20.50
2018-03-28T17:06:17.131Z,15.70
2018-03-28T17:11:21.255Z,26.93
2018-03-28T17:16:24.348Z,22.20
2018-03-28T17:21:27.540Z,22.03
2018-03-28T17:26:30.868Z,21.47
2018-03-28T17:31:34.045Z,22.77
2018-03-28T17:36:37.131Z,25.23
2018-03-28T17:41:41.074Z,24.43
2018-03-28T17:46:45.146Z,20.37
2018-03-28T17:51:48.195Z,28.57
2018-03-28T17:56:51.266Z,25.47
2018-03-28T18:01:54.453Z,16.57
2018-03-28T18:06:57.543Z,17.80
2018-03-28T18:12:00.913Z,26.37
2018-03-28T18:17:04.086Z,16.53
2018-03-28T18:22:07.207Z,22.07
2018-03-28T18:27:10.330Z,24.90
2018-03-28T18:32:13.448Z,25.50
2018-03-28T18:37:16.616Z,20.10
2018-03-28T18:42:21.119Z,16.90
2018-03-28T18:47:25.891Z,18.37
2018-03-28T18:52:29.065Z,23.10
2018-03-28T18:57:32.334Z,15.90
2018-03-28T19:02:35.976Z,13.33
2018-03-28T19:07:39.166Z,15.10
2018-03-28T19:12:43.598Z,12.93
2018-03-28T19:17:46.735Z,19.47
2018-03-28T19:22:52.553Z,17.60
2018-03-28T19:27:57.451Z,12.93
2018-03-28T19:33:01.288Z,11.97
2018-03-28T19:38:04.455Z,14.40
2018-03-28T19:43:07.724Z,12.83
2018-03-28T19:48:10.892Z,10.63
2018-03-28T19:53:14.179Z,15.97
2018-03-28T19:58:17.385Z,12.93
2018-03-28T20:03:21.067Z,16.60
2018-03-28T20:08:24.168Z,9.63
2018-03-28T20:13:27.491Z,12.70
2018-03-28T20:18:30.595Z,16.67
2018-03-28T20:23:34.536Z,13.97
2018-03-28T20:28:37.652Z,14.93
2018-03-28T20:33:41.092Z,14.10
2018-03-28T20:38:44.547Z,13.43
2018-03-28T20:43:48.053Z,17.00
2018-03-28T20:54:32.711Z,15.20
2018-03-28T20:59:35.746Z,16.33
2018-03-28T21:04:38.837Z,10.83
2018-03-28T21:09:42.586Z,12.77
2018-03-28T21:14:45.860Z,9.73
2018-03-28T21:19:48.943Z,16.60
2018-03-28T21:24:52.232Z,17.23
2018-03-28T21:29:55.464Z,16.40
2018-03-28T21:34:58.396Z,13.20
2018-03-28T21:40:01.606Z,9.60
2018-03-28T21:45:05.185Z,18.77
2018-03-28T21:50:08.202Z,10.37
2018-03-28T21:55:11.130Z,14.00
2018-03-28T22:00:14.055Z,15.90
2018-03-28T22:05:17.049Z,13.17
2018-03-28T22:10:20.407Z,14.40
2018-03-28T22:15:23.971Z,12.57
2018-03-28T22:20:26.988Z,13.70
2018-03-28T22:25:29.838Z,10.17
2018-03-28T22:30:32.829Z,18.23
2018-03-28T22:35:35.659Z,14.37
2018-03-28T22:40:39.590Z,16.40
2018-03-28T22:45:42.634Z,15.27
2018-03-28T22:50:46.116Z,9.90
2018-03-28T22:55:49.217Z,13.47
2018-03-28T23:00:52.284Z,11.73
2018-03-28T23:05:55.179Z,13.83
2018-03-28T23:10:58.822Z,12.03
2018-03-28T23:16:02.266Z,15.40
2018-03-28T23:21:05.288Z,16.47
2018-03-28T23:26:08.100Z,19.33
2018-03-28T23:31:11.414Z,13.37
2018-03-28T23:36:14.605Z,20.60
2018-03-28T23:41:18.291Z,15.73
2018-03-28T23:46:21.707Z,15.97
2018-03-28T23:51:24.676Z,6.10
2018-03-28T23:56:28.546Z,14.20
